sensor_id;sensor_type;location;lat;lon;timestamp;P1;durP1;ratioP1;P2;durP2;ratioP2
81477;SDS011;70892;52.526;5.494;2023-06-22T00:01:09;22.00;;;11.02;;
81477;SDS011;70892;52.526;5.494;2023-06-22T00:03:35;20.13;;;11.40;;
81477;SDS011;70892;52.526;5.494;2023-06-22T00:06:00;26.40;;;13.32;;
81477;SDS011;70892;52.526;5.494;2023-06-22T00:08:25;26.73;;;13.77;;
81477;SDS011;70892;52.526;5.494;2023-06-22T00:10:51;28.85;;;13.88;;
81477;SDS011;70892;52.526;5.494;2023-06-22T00:13:16;26.95;;;13.93;;
81477;SDS011;70892;52.526;5.494;2023-06-22T00:15:43;31.60;;;15.57;;
81477;SDS011;70892;52.526;5.494;2023-06-22T00:18:09;29.38;;;14.55;;
81477;SDS011;70892;52.526;5.494;2023-06-22T00:20:35;27.38;;;13.43;;
81477;SDS011;70892;52.526;5.494;2023-06-22T00:23:04;39.88;;;16.92;;
81477;SDS011;70892;52.526;5.494;2023-06-22T00:25:34;35.72;;;16.23;;
81477;SDS011;70892;52.526;5.494;2023-06-22T00:28:01;37.83;;;16.13;;
81477;SDS011;70892;52.526;5.494;2023-06-22T00:30:27;30.05;;;15.43;;
81477;SDS011;70892;52.526;5.494;2023-06-22T00:32:52;38.22;;;16.60;;
81477;SDS011;70892;52.526;5.494;2023-06-22T00:35:18;36.90;;;17.10;;
81477;SDS011;70892;52.526;5.494;2023-06-22T00:37:44;33.72;;;16.80;;
81477;SDS011;70892;52.526;5.494;2023-06-22T00:40:09;43.70;;;19.27;;
81477;SDS011;70892;52.526;5.494;2023-06-22T00:42:39;45.33;;;19.48;;
81477;SDS011;70892;52.526;5.494;2023-06-22T00:45:05;44.83;;;21.42;;
81477;SDS011;70892;52.526;5.494;2023-06-22T00:47:31;49.83;;;22.10;;
81477;SDS011;70892;52.526;5.494;2023-06-22T00:49:59;48.65;;;21.25;;
81477;SDS011;70892;52.526;5.494;2023-06-22T00:52:25;48.58;;;21.17;;
81477;SDS011;70892;52.526;5.494;2023-06-22T00:54:54;49.28;;;21.67;;
81477;SDS011;70892;52.526;5.494;2023-06-22T00:57:20;60.05;;;24.95;;
81477;SDS011;70892;52.526;5.494;2023-06-22T00:59:47;72.63;;;28.10;;
81477;SDS011;70892;52.526;5.494;2023-06-22T01:02:14;90.60;;;32.17;;
81477;SDS011;70892;52.526;5.494;2023-06-22T01:04:39;62.42;;;25.50;;
81477;SDS011;70892;52.526;5.494;2023-06-22T01:09:41;72.47;;;28.50;;
81477;SDS011;70892;52.526;5.494;2023-06-22T01:12:14;66.60;;;26.75;;
81477;SDS011;70892;52.526;5.494;2023-06-22T01:14:43;76.85;;;28.88;;
81477;SDS011;70892;52.526;5.494;2023-06-22T01:17:17;72.88;;;28.98;;
81477;SDS011;70892;52.526;5.494;2023-06-22T01:19:51;73.43;;;30.17;;
81477;SDS011;70892;52.526;5.494;2023-06-22T01:25:17;65.10;;;27.15;;
81477;SDS011;70892;52.526;5.494;2023-06-22T01:30:43;60.17;;;25.98;;
81477;SDS011;70892;52.526;5.494;2023-06-22T01:33:11;69.35;;;26.77;;
81477;SDS011;70892;52.526;5.494;2023-06-22T01:35:38;58.10;;;24.95;;
81477;SDS011;70892;52.526;5.494;2023-06-22T01:38:05;62.65;;;26.20;;
81477;SDS011;70892;52.526;5.494;2023-06-22T01:40:32;57.03;;;24.10;;
81477;SDS011;70892;52.526;5.494;2023-06-22T01:43:02;96.32;;;33.63;;
81477;SDS011;70892;52.526;5.494;2023-06-22T01:45:28;83.72;;;32.13;;
81477;SDS011;70892;52.526;5.494;2023-06-22T01:47:54;76.95;;;31.40;;
81477;SDS011;70892;52.526;5.494;2023-06-22T01:50:20;97.25;;;35.63;;
81477;SDS011;70892;52.526;5.494;2023-06-22T01:52:46;117.93;;;39.42;;
81477;SDS011;70892;52.526;5.494;2023-06-22T01:55:11;138.50;;;40.95;;
81477;SDS011;70892;52.526;5.494;2023-06-22T01:57:37;123.43;;;38.72;;
81477;SDS011;70892;52.526;5.494;2023-06-22T02:00:04;127.95;;;42.42;;
81477;SDS011;70892;52.526;5.494;2023-06-22T02:02:33;102.22;;;36.55;;
81477;SDS011;70892;52.526;5.494;2023-06-22T02:05:07;153.10;;;44.72;;
81477;SDS011;70892;52.526;5.494;2023-06-22T02:07:47;116.50;;;38.60;;
81477;SDS011;70892;52.526;5.494;2023-06-22T02:10:17;108.68;;;37.70;;
81477;SDS011;70892;52.526;5.494;2023-06-22T02:12:46;108.18;;;38.38;;
81477;SDS011;70892;52.526;5.494;2023-06-22T02:15:13;117.40;;;37.42;;
81477;SDS011;70892;52.526;5.494;2023-06-22T02:17:39;110.70;;;38.92;;
81477;SDS011;70892;52.526;5.494;2023-06-22T02:20:13;101.07;;;35.83;;
81477;SDS011;70892;52.526;5.494;2023-06-22T02:22:39;64.95;;;28.40;;
81477;SDS011;70892;52.526;5.494;2023-06-22T02:25:04;102.45;;;35.00;;
81477;SDS011;70892;52.526;5.494;2023-06-22T02:27:33;123.35;;;41.33;;
81477;SDS011;70892;52.526;5.494;2023-06-22T02:29:59;149.02;;;44.13;;
81477;SDS011;70892;52.526;5.494;2023-06-22T02:32:24;111.47;;;39.72;;
81477;SDS011;70892;52.526;5.494;2023-06-22T02:34:49;122.17;;;40.57;;
81477;SDS011;70892;52.526;5.494;2023-06-22T02:37:15;99.57;;;36.33;;
81477;SDS011;70892;52.526;5.494;2023-06-22T02:39:41;166.25;;;46.97;;
81477;SDS011;70892;52.526;5.494;2023-06-22T02:42:06;153.32;;;48.08;;
81477;SDS011;70892;52.526;5.494;2023-06-22T02:44:32;180.57;;;51.58;;
81477;SDS011;70892;52.526;5.494;2023-06-22T02:46:57;175.75;;;53.20;;
81477;SDS011;70892;52.526;5.494;2023-06-22T02:49:23;154.40;;;47.15;;
81477;SDS011;70892;52.526;5.494;2023-06-22T02:51:49;140.60;;;46.65;;
81477;SDS011;70892;52.526;5.494;2023-06-22T02:54:14;160.63;;;49.55;;
81477;SDS011;70892;52.526;5.494;2023-06-22T02:56:41;129.65;;;42.00;;
81477;SDS011;70892;52.526;5.494;2023-06-22T02:59:09;161.68;;;49.60;;
81477;SDS011;70892;52.526;5.494;2023-06-22T03:01:35;157.15;;;47.38;;
81477;SDS011;70892;52.526;5.494;2023-06-22T03:04:08;153.90;;;46.78;;
81477;SDS011;70892;52.526;5.494;2023-06-22T03:06:34;212.88;;;55.65;;
81477;SDS011;70892;52.526;5.494;2023-06-22T03:09:00;189.05;;;55.47;;
81477;SDS011;70892;52.526;5.494;2023-06-22T03:11:28;121.53;;;40.65;;
81477;SDS011;70892;52.526;5.494;2023-06-22T03:13:53;117.63;;;39.63;;
81477;SDS011;70892;52.526;5.494;2023-06-22T03:16:19;183.15;;;50.72;;
81477;SDS011;70892;52.526;5.494;2023-06-22T03:18:44;164.70;;;49.78;;
81477;SDS011;70892;52.526;5.494;2023-06-22T03:21:10;179.07;;;51.40;;
81477;SDS011;70892;52.526;5.494;2023-06-22T03:23:35;176.38;;;50.70;;
81477;SDS011;70892;52.526;5.494;2023-06-22T03:26:01;153.38;;;47.72;;
81477;SDS011;70892;52.526;5.494;2023-06-22T03:28:27;165.55;;;51.22;;
81477;SDS011;70892;52.526;5.494;2023-06-22T03:30:52;190.65;;;54.25;;
81477;SDS011;70892;52.526;5.494;2023-06-22T03:33:18;188.73;;;53.63;;
81477;SDS011;70892;52.526;5.494;2023-06-22T03:35:43;165.30;;;48.93;;
81477;SDS011;70892;52.526;5.494;2023-06-22T03:38:08;144.15;;;45.13;;
81477;SDS011;70892;52.526;5.494;2023-06-22T03:40:34;164.70;;;48.07;;
81477;SDS011;70892;52.526;5.494;2023-06-22T03:42:59;130.95;;;42.78;;
81477;SDS011;70892;52.526;5.494;2023-06-22T03:45:24;128.63;;;42.60;;
81477;SDS011;70892;52.526;5.494;2023-06-22T03:47:50;95.95;;;37.05;;
81477;SDS011;70892;52.526;5.494;2023-06-22T03:50:15;86.38;;;35.47;;
81477;SDS011;70892;52.526;5.494;2023-06-22T03:52:41;128.32;;;42.28;;
81477;SDS011;70892;52.526;5.494;2023-06-22T03:55:06;129.15;;;43.00;;
81477;SDS011;70892;52.526;5.494;2023-06-22T03:57:32;119.65;;;41.67;;
81477;SDS011;70892;52.526;5.494;2023-06-22T03:59:58;124.10;;;41.47;;
81477;SDS011;70892;52.526;5.494;2023-06-22T04:02:24;131.43;;;43.30;;
81477;SDS011;70892;52.526;5.494;2023-06-22T04:04:49;115.45;;;40.75;;
81477;SDS011;70892;52.526;5.494;2023-06-22T04:07:15;133.32;;;44.40;;
81477;SDS011;70892;52.526;5.494;2023-06-22T04:09:42;149.77;;;46.50;;
81477;SDS011;70892;52.526;5.494;2023-06-22T04:12:08;122.63;;;43.55;;
81477;SDS011;70892;52.526;5.494;2023-06-22T04:14:34;119.30;;;43.83;;
81477;SDS011;70892;52.526;5.494;2023-06-22T04:16:59;114.07;;;43.40;;
81477;SDS011;70892;52.526;5.494;2023-06-22T04:19:24;139.73;;;45.80;;
81477;SDS011;70892;52.526;5.494;2023-06-22T04:21:50;146.10;;;48.25;;
81477;SDS011;70892;52.526;5.494;2023-06-22T04:24:15;149.83;;;49.30;;
81477;SDS011;70892;52.526;5.494;2023-06-22T04:26:41;133.10;;;47.38;;
81477;SDS011;70892;52.526;5.494;2023-06-22T04:29:10;134.98;;;46.78;;
81477;SDS011;70892;52.526;5.494;2023-06-22T04:31:36;121.75;;;44.90;;
81477;SDS011;70892;52.526;5.494;2023-06-22T04:34:02;85.93;;;36.65;;
81477;SDS011;70892;52.526;5.494;2023-06-22T04:36:34;109.32;;;43.05;;
81477;SDS011;70892;52.526;5.494;2023-06-22T04:39:07;106.53;;;42.65;;
81477;SDS011;70892;52.526;5.494;2023-06-22T04:41:35;144.18;;;55.08;;
81477;SDS011;70892;52.526;5.494;2023-06-22T04:44:10;142.13;;;53.67;;
81477;SDS011;70892;52.526;5.494;2023-06-22T04:46:55;121.53;;;50.22;;
81477;SDS011;70892;52.526;5.494;2023-06-22T04:49:25;133.93;;;53.88;;
81477;SDS011;70892;52.526;5.494;2023-06-22T04:52:07;105.63;;;49.97;;
81477;SDS011;70892;52.526;5.494;2023-06-22T04:54:34;94.90;;;45.05;;
81477;SDS011;70892;52.526;5.494;2023-06-22T04:57:01;99.57;;;46.75;;
81477;SDS011;70892;52.526;5.494;2023-06-22T04:59:28;109.45;;;49.40;;
81477;SDS011;70892;52.526;5.494;2023-06-22T05:01:55;116.53;;;50.83;;
81477;SDS011;70892;52.526;5.494;2023-06-22T05:04:25;110.95;;;51.17;;
81477;SDS011;70892;52.526;5.494;2023-06-22T05:06:53;107.43;;;49.53;;
81477;SDS011;70892;52.526;5.494;2023-06-22T05:09:19;110.47;;;50.63;;
81477;SDS011;70892;52.526;5.494;2023-06-22T05:11:45;85.35;;;43.42;;
81477;SDS011;70892;52.526;5.494;2023-06-22T05:14:10;89.75;;;46.65;;
81477;SDS011;70892;52.526;5.494;2023-06-22T05:16:36;107.55;;;50.92;;
81477;SDS011;70892;52.526;5.494;2023-06-22T05:19:02;91.70;;;46.38;;
81477;SDS011;70892;52.526;5.494;2023-06-22T05:21:30;87.18;;;44.95;;
81477;SDS011;70892;52.526;5.494;2023-06-22T05:23:57;84.60;;;45.63;;
81477;SDS011;70892;52.526;5.494;2023-06-22T05:26:25;79.68;;;43.55;;
81477;SDS011;70892;52.526;5.494;2023-06-22T05:28:51;73.45;;;41.17;;
81477;SDS011;70892;52.526;5.494;2023-06-22T05:31:17;69.50;;;40.63;;
81477;SDS011;70892;52.526;5.494;2023-06-22T05:33:44;74.78;;;41.42;;
81477;SDS011;70892;52.526;5.494;2023-06-22T05:36:11;69.32;;;39.17;;
81477;SDS011;70892;52.526;5.494;2023-06-22T05:38:37;65.93;;;40.38;;
81477;SDS011;70892;52.526;5.494;2023-06-22T05:41:03;62.70;;;38.25;;
81477;SDS011;70892;52.526;5.494;2023-06-22T05:43:28;61.30;;;38.60;;
81477;SDS011;70892;52.526;5.494;2023-06-22T05:45:54;64.95;;;39.03;;
81477;SDS011;70892;52.526;5.494;2023-06-22T05:48:19;64.82;;;36.45;;
81477;SDS011;70892;52.526;5.494;2023-06-22T05:50:45;62.05;;;38.47;;
81477;SDS011;70892;52.526;5.494;2023-06-22T05:53:10;57.70;;;35.60;;
81477;SDS011;70892;52.526;5.494;2023-06-22T05:55:36;57.47;;;34.70;;
81477;SDS011;70892;52.526;5.494;2023-06-22T05:58:01;54.35;;;35.33;;
81477;SDS011;70892;52.526;5.494;2023-06-22T06:00:28;46.72;;;31.90;;
81477;SDS011;70892;52.526;5.494;2023-06-22T06:02:53;56.22;;;35.28;;
81477;SDS011;70892;52.526;5.494;2023-06-22T06:05:19;52.43;;;33.33;;
81477;SDS011;70892;52.526;5.494;2023-06-22T06:07:44;47.83;;;31.02;;
81477;SDS011;70892;52.526;5.494;2023-06-22T06:10:10;43.00;;;29.20;;
81477;SDS011;70892;52.526;5.494;2023-06-22T06:12:36;39.50;;;27.17;;
81477;SDS011;70892;52.526;5.494;2023-06-22T06:15:02;33.13;;;25.27;;
81477;SDS011;70892;52.526;5.494;2023-06-22T06:17:28;30.80;;;23.40;;
81477;SDS011;70892;52.526;5.494;2023-06-22T06:19:53;30.97;;;22.27;;
81477;SDS011;70892;52.526;5.494;2023-06-22T06:22:19;29.83;;;23.20;;
81477;SDS011;70892;52.526;5.494;2023-06-22T06:24:46;29.65;;;22.50;;
81477;SDS011;70892;52.526;5.494;2023-06-22T06:27:12;30.58;;;23.00;;
81477;SDS011;70892;52.526;5.494;2023-06-22T06:29:38;29.42;;;21.33;;
81477;SDS011;70892;52.526;5.494;2023-06-22T06:32:03;30.02;;;22.33;;
81477;SDS011;70892;52.526;5.494;2023-06-22T06:34:29;30.80;;;23.48;;
81477;SDS011;70892;52.526;5.494;2023-06-22T06:36:54;30.00;;;22.43;;
81477;SDS011;70892;52.526;5.494;2023-06-22T06:39:19;32.30;;;22.67;;
81477;SDS011;70892;52.526;5.494;2023-06-22T06:41:45;29.17;;;23.42;;
81477;SDS011;70892;52.526;5.494;2023-06-22T06:44:11;30.60;;;22.00;;
81477;SDS011;70892;52.526;5.494;2023-06-22T06:46:36;30.48;;;21.98;;
81477;SDS011;70892;52.526;5.494;2023-06-22T06:49:02;28.83;;;20.75;;
81477;SDS011;70892;52.526;5.494;2023-06-22T06:51:28;28.65;;;21.35;;
81477;SDS011;70892;52.526;5.494;2023-06-22T06:53:53;30.15;;;23.30;;
81477;SDS011;70892;52.526;5.494;2023-06-22T06:56:19;27.38;;;21.33;;
81477;SDS011;70892;52.526;5.494;2023-06-22T06:58:44;28.77;;;20.52;;
81477;SDS011;70892;52.526;5.494;2023-06-22T07:01:10;29.92;;;22.15;;
81477;SDS011;70892;52.526;5.494;2023-06-22T07:03:37;26.80;;;20.35;;
81477;SDS011;70892;52.526;5.494;2023-06-22T07:06:02;30.92;;;21.88;;
81477;SDS011;70892;52.526;5.494;2023-06-22T07:08:28;26.98;;;21.63;;
81477;SDS011;70892;52.526;5.494;2023-06-22T07:10:53;28.83;;;21.67;;
81477;SDS011;70892;52.526;5.494;2023-06-22T07:13:19;26.40;;;21.30;;
81477;SDS011;70892;52.526;5.494;2023-06-22T07:15:44;25.67;;;20.45;;
81477;SDS011;70892;52.526;5.494;2023-06-22T07:18:10;27.00;;;20.90;;
81477;SDS011;70892;52.526;5.494;2023-06-22T07:20:35;25.50;;;21.45;;
81477;SDS011;70892;52.526;5.494;2023-06-22T07:23:00;25.23;;;20.77;;
81477;SDS011;70892;52.526;5.494;2023-06-22T07:25:26;26.60;;;21.10;;
81477;SDS011;70892;52.526;5.494;2023-06-22T07:30:24;27.33;;;20.95;;
81477;SDS011;70892;52.526;5.494;2023-06-22T07:32:50;25.42;;;19.85;;
81477;SDS011;70892;52.526;5.494;2023-06-22T07:35:15;25.95;;;21.35;;
81477;SDS011;70892;52.526;5.494;2023-06-22T07:37:41;24.33;;;19.83;;
81477;SDS011;70892;52.526;5.494;2023-06-22T07:40:07;23.45;;;19.05;;
81477;SDS011;70892;52.526;5.494;2023-06-22T07:42:33;25.30;;;21.10;;
81477;SDS011;70892;52.526;5.494;2023-06-22T07:44:59;23.17;;;19.98;;
81477;SDS011;70892;52.526;5.494;2023-06-22T07:47:24;24.95;;;20.17;;
81477;SDS011;70892;52.526;5.494;2023-06-22T07:49:50;24.45;;;18.92;;
81477;SDS011;70892;52.526;5.494;2023-06-22T07:52:15;20.02;;;16.88;;
81477;SDS011;70892;52.526;5.494;2023-06-22T07:54:41;20.67;;;17.27;;
81477;SDS011;70892;52.526;5.494;2023-06-22T07:57:06;22.70;;;16.10;;
81477;SDS011;70892;52.526;5.494;2023-06-22T07:59:31;19.88;;;16.13;;
81477;SDS011;70892;52.526;5.494;2023-06-22T08:01:57;18.40;;;15.37;;
81477;SDS011;70892;52.526;5.494;2023-06-22T08:04:23;20.02;;;15.23;;
81477;SDS011;70892;52.526;5.494;2023-06-22T08:06:48;20.55;;;16.70;;
81477;SDS011;70892;52.526;5.494;2023-06-22T08:09:14;20.60;;;16.83;;
81477;SDS011;70892;52.526;5.494;2023-06-22T08:11:39;23.95;;;16.45;;
81477;SDS011;70892;52.526;5.494;2023-06-22T08:14:05;18.33;;;15.68;;
81477;SDS011;70892;52.526;5.494;2023-06-22T08:16:30;19.40;;;15.20;;
81477;SDS011;70892;52.526;5.494;2023-06-22T08:18:56;16.02;;;13.52;;
81477;SDS011;70892;52.526;5.494;2023-06-22T08:21:21;19.13;;;15.85;;
81477;SDS011;70892;52.526;5.494;2023-06-22T08:23:47;17.67;;;14.57;;
81477;SDS011;70892;52.526;5.494;2023-06-22T08:26:13;18.05;;;14.00;;
81477;SDS011;70892;52.526;5.494;2023-06-22T08:28:39;19.98;;;13.70;;
81477;SDS011;70892;52.526;5.494;2023-06-22T08:31:05;18.38;;;14.63;;
81477;SDS011;70892;52.526;5.494;2023-06-22T08:33:30;19.77;;;14.40;;
81477;SDS011;70892;52.526;5.494;2023-06-22T08:35:56;21.23;;;16.15;;
81477;SDS011;70892;52.526;5.494;2023-06-22T08:38:21;19.15;;;14.85;;
81477;SDS011;70892;52.526;5.494;2023-06-22T08:40:47;18.75;;;15.32;;
81477;SDS011;70892;52.526;5.494;2023-06-22T08:43:12;19.63;;;15.50;;
81477;SDS011;70892;52.526;5.494;2023-06-22T08:45:37;18.05;;;14.30;;
81477;SDS011;70892;52.526;5.494;2023-06-22T08:48:03;17.47;;;14.57;;
81477;SDS011;70892;52.526;5.494;2023-06-22T08:50:28;17.60;;;14.50;;
81477;SDS011;70892;52.526;5.494;2023-06-22T08:52:54;20.38;;;14.60;;
81477;SDS011;70892;52.526;5.494;2023-06-22T08:55:19;17.30;;;13.40;;
81477;SDS011;70892;52.526;5.494;2023-06-22T08:57:44;17.45;;;14.07;;
81477;SDS011;70892;52.526;5.494;2023-06-22T09:00:10;17.08;;;14.48;;
81477;SDS011;70892;52.526;5.494;2023-06-22T09:02:42;17.13;;;13.85;;
81477;SDS011;70892;52.526;5.494;2023-06-22T09:05:09;16.50;;;13.85;;
81477;SDS011;70892;52.526;5.494;2023-06-22T09:07:34;17.50;;;13.65;;
81477;SDS011;70892;52.526;5.494;2023-06-22T09:09:59;17.40;;;13.75;;
81477;SDS011;70892;52.526;5.494;2023-06-22T09:12:25;17.20;;;12.85;;
81477;SDS011;70892;52.526;5.494;2023-06-22T09:14:52;17.80;;;14.35;;
81477;SDS011;70892;52.526;5.494;2023-06-22T09:17:18;17.23;;;12.20;;
81477;SDS011;70892;52.526;5.494;2023-06-22T09:19:43;16.05;;;13.68;;
81477;SDS011;70892;52.526;5.494;2023-06-22T09:22:09;14.40;;;12.90;;
81477;SDS011;70892;52.526;5.494;2023-06-22T09:24:34;16.48;;;12.70;;
81477;SDS011;70892;52.526;5.494;2023-06-22T09:27:00;15.90;;;13.20;;
81477;SDS011;70892;52.526;5.494;2023-06-22T09:29:25;14.98;;;12.65;;
81477;SDS011;70892;52.526;5.494;2023-06-22T09:31:50;14.52;;;12.20;;
81477;SDS011;70892;52.526;5.494;2023-06-22T09:34:18;14.75;;;13.00;;
81477;SDS011;70892;52.526;5.494;2023-06-22T09:36:45;13.75;;;11.88;;
81477;SDS011;70892;52.526;5.494;2023-06-22T09:39:11;17.00;;;12.88;;
81477;SDS011;70892;52.526;5.494;2023-06-22T09:41:36;16.27;;;12.82;;
81477;SDS011;70892;52.526;5.494;2023-06-22T09:44:01;15.80;;;12.60;;
81477;SDS011;70892;52.526;5.494;2023-06-22T09:46:27;13.32;;;11.93;;
81477;SDS011;70892;52.526;5.494;2023-06-22T09:48:53;14.85;;;11.52;;
81477;SDS011;70892;52.526;5.494;2023-06-22T09:51:19;14.05;;;11.85;;
81477;SDS011;70892;52.526;5.494;2023-06-22T09:53:46;12.77;;;10.52;;
81477;SDS011;70892;52.526;5.494;2023-06-22T09:56:12;13.55;;;12.15;;
81477;SDS011;70892;52.526;5.494;2023-06-22T09:58:40;14.95;;;11.13;;
81477;SDS011;70892;52.526;5.494;2023-06-22T10:01:06;13.05;;;9.85;;
81477;SDS011;70892;52.526;5.494;2023-06-22T10:03:32;15.82;;;11.27;;
81477;SDS011;70892;52.526;5.494;2023-06-22T10:05:57;12.52;;;10.98;;
81477;SDS011;70892;52.526;5.494;2023-06-22T10:08:22;12.68;;;10.77;;
81477;SDS011;70892;52.526;5.494;2023-06-22T10:10:48;11.57;;;9.87;;
81477;SDS011;70892;52.526;5.494;2023-06-22T10:13:13;12.10;;;8.80;;
81477;SDS011;70892;52.526;5.494;2023-06-22T10:15:39;12.88;;;10.25;;
81477;SDS011;70892;52.526;5.494;2023-06-22T10:18:05;11.73;;;9.75;;
81477;SDS011;70892;52.526;5.494;2023-06-22T10:20:30;12.65;;;9.50;;
81477;SDS011;70892;52.526;5.494;2023-06-22T10:22:55;11.05;;;8.75;;
81477;SDS011;70892;52.526;5.494;2023-06-22T10:25:21;11.02;;;8.65;;
81477;SDS011;70892;52.526;5.494;2023-06-22T10:27:47;8.90;;;7.85;;
81477;SDS011;70892;52.526;5.494;2023-06-22T10:30:13;11.32;;;7.72;;
81477;SDS011;70892;52.526;5.494;2023-06-22T10:32:38;9.18;;;7.55;;
81477;SDS011;70892;52.526;5.494;2023-06-22T10:35:05;12.10;;;8.68;;
81477;SDS011;70892;52.526;5.494;2023-06-22T10:37:31;11.68;;;9.40;;
81477;SDS011;70892;52.526;5.494;2023-06-22T10:39:56;10.20;;;7.57;;
81477;SDS011;70892;52.526;5.494;2023-06-22T10:42:22;10.48;;;7.88;;
81477;SDS011;70892;52.526;5.494;2023-06-22T10:44:47;10.10;;;8.60;;
81477;SDS011;70892;52.526;5.494;2023-06-22T10:47:13;10.82;;;8.90;;
81477;SDS011;70892;52.526;5.494;2023-06-22T10:49:38;11.05;;;8.88;;
81477;SDS011;70892;52.526;5.494;2023-06-22T10:52:05;10.43;;;7.70;;
81477;SDS011;70892;52.526;5.494;2023-06-22T10:54:32;9.95;;;7.10;;
81477;SDS011;70892;52.526;5.494;2023-06-22T10:56:58;9.63;;;7.57;;
81477;SDS011;70892;52.526;5.494;2023-06-22T10:59:24;13.18;;;8.88;;
81477;SDS011;70892;52.526;5.494;2023-06-22T11:01:50;11.05;;;8.75;;
81477;SDS011;70892;52.526;5.494;2023-06-22T11:04:16;10.07;;;8.25;;
81477;SDS011;70892;52.526;5.494;2023-06-22T11:06:42;9.45;;;7.80;;
81477;SDS011;70892;52.526;5.494;2023-06-22T11:09:08;9.95;;;7.65;;
81477;SDS011;70892;52.526;5.494;2023-06-22T11:11:33;8.68;;;7.80;;
81477;SDS011;70892;52.526;5.494;2023-06-22T11:13:59;10.00;;;7.50;;
81477;SDS011;70892;52.526;5.494;2023-06-22T11:16:24;10.52;;;8.48;;
81477;SDS011;70892;52.526;5.494;2023-06-22T11:18:50;11.10;;;7.88;;
81477;SDS011;70892;52.526;5.494;2023-06-22T11:21:15;9.73;;;8.43;;
81477;SDS011;70892;52.526;5.494;2023-06-22T11:23:41;10.65;;;7.93;;
81477;SDS011;70892;52.526;5.494;2023-06-22T11:26:07;10.07;;;8.63;;
81477;SDS011;70892;52.526;5.494;2023-06-22T11:28:33;16.67;;;7.45;;
81477;SDS011;70892;52.526;5.494;2023-06-22T11:30:58;10.95;;;7.30;;
81477;SDS011;70892;52.526;5.494;2023-06-22T11:33:23;9.15;;;7.13;;
81477;SDS011;70892;52.526;5.494;2023-06-22T11:35:49;7.97;;;7.03;;
81477;SDS011;70892;52.526;5.494;2023-06-22T11:38:14;9.15;;;7.32;;
81477;SDS011;70892;52.526;5.494;2023-06-22T11:40:40;11.55;;;7.72;;
81477;SDS011;70892;52.526;5.494;2023-06-22T11:43:05;11.05;;;7.32;;
81477;SDS011;70892;52.526;5.494;2023-06-22T11:45:31;9.75;;;7.43;;
81477;SDS011;70892;52.526;5.494;2023-06-22T11:47:56;10.05;;;7.72;;
81477;SDS011;70892;52.526;5.494;2023-06-22T11:50:21;12.45;;;7.22;;
81477;SDS011;70892;52.526;5.494;2023-06-22T11:52:47;8.73;;;6.50;;
81477;SDS011;70892;52.526;5.494;2023-06-22T11:55:12;11.15;;;6.68;;
81477;SDS011;70892;52.526;5.494;2023-06-22T11:57:38;8.73;;;6.90;;
81477;SDS011;70892;52.526;5.494;2023-06-22T12:00:18;9.05;;;6.75;;
81477;SDS011;70892;52.526;5.494;2023-06-22T12:02:44;8.98;;;6.25;;
81477;SDS011;70892;52.526;5.494;2023-06-22T12:05:12;9.55;;;6.53;;
81477;SDS011;70892;52.526;5.494;2023-06-22T12:07:38;7.68;;;6.68;;
81477;SDS011;70892;52.526;5.494;2023-06-22T12:10:03;8.82;;;7.28;;
81477;SDS011;70892;52.526;5.494;2023-06-22T12:12:29;9.18;;;6.50;;
81477;SDS011;70892;52.526;5.494;2023-06-22T12:14:54;10.48;;;7.43;;
81477;SDS011;70892;52.526;5.494;2023-06-22T12:17:20;10.85;;;7.18;;
81477;SDS011;70892;52.526;5.494;2023-06-22T12:19:45;10.13;;;7.15;;
81477;SDS011;70892;52.526;5.494;2023-06-22T12:22:11;8.98;;;6.53;;
81477;SDS011;70892;52.526;5.494;2023-06-22T12:24:36;9.60;;;6.45;;
81477;SDS011;70892;52.526;5.494;2023-06-22T12:27:01;9.07;;;6.30;;
81477;SDS011;70892;52.526;5.494;2023-06-22T12:29:29;7.93;;;6.20;;
81477;SDS011;70892;52.526;5.494;2023-06-22T12:31:55;13.07;;;6.65;;
81477;SDS011;70892;52.526;5.494;2023-06-22T12:34:20;10.15;;;7.03;;
81477;SDS011;70892;52.526;5.494;2023-06-22T12:36:45;8.20;;;6.75;;
81477;SDS011;70892;52.526;5.494;2023-06-22T12:39:13;11.77;;;7.82;;
81477;SDS011;70892;52.526;5.494;2023-06-22T12:41:38;8.85;;;7.00;;
81477;SDS011;70892;52.526;5.494;2023-06-22T12:44:04;10.90;;;7.95;;
81477;SDS011;70892;52.526;5.494;2023-06-22T12:46:29;11.02;;;8.20;;
81477;SDS011;70892;52.526;5.494;2023-06-22T12:49:00;11.85;;;8.32;;
81477;SDS011;70892;52.526;5.494;2023-06-22T12:51:26;11.10;;;8.40;;
81477;SDS011;70892;52.526;5.494;2023-06-22T12:53:51;11.57;;;7.38;;
81477;SDS011;70892;52.526;5.494;2023-06-22T12:56:16;11.02;;;7.53;;
81477;SDS011;70892;52.526;5.494;2023-06-22T12:58:42;12.05;;;7.95;;
81477;SDS011;70892;52.526;5.494;2023-06-22T13:01:07;9.20;;;7.07;;
81477;SDS011;70892;52.526;5.494;2023-06-22T13:03:32;8.73;;;6.83;;
81477;SDS011;70892;52.526;5.494;2023-06-22T13:05:58;10.00;;;7.20;;
81477;SDS011;70892;52.526;5.494;2023-06-22T13:08:23;8.38;;;7.20;;
81477;SDS011;70892;52.526;5.494;2023-06-22T13:10:48;9.98;;;6.65;;
81477;SDS011;70892;52.526;5.494;2023-06-22T13:13:14;9.80;;;6.50;;
81477;SDS011;70892;52.526;5.494;2023-06-22T13:15:39;9.50;;;6.93;;
81477;SDS011;70892;52.526;5.494;2023-06-22T13:18:04;11.27;;;7.18;;
81477;SDS011;70892;52.526;5.494;2023-06-22T13:20:30;9.55;;;7.07;;
81477;SDS011;70892;52.526;5.494;2023-06-22T13:22:55;9.25;;;7.40;;
81477;SDS011;70892;52.526;5.494;2023-06-22T13:25:21;9.23;;;6.25;;
81477;SDS011;70892;52.526;5.494;2023-06-22T13:27:51;13.27;;;7.53;;
81477;SDS011;70892;52.526;5.494;2023-06-22T13:30:16;7.55;;;6.38;;
81477;SDS011;70892;52.526;5.494;2023-06-22T13:32:42;10.05;;;6.68;;
81477;SDS011;70892;52.526;5.494;2023-06-22T13:35:11;8.88;;;6.97;;
81477;SDS011;70892;52.526;5.494;2023-06-22T13:37:36;9.50;;;7.13;;
81477;SDS011;70892;52.526;5.494;2023-06-22T13:40:02;10.32;;;7.75;;
81477;SDS011;70892;52.526;5.494;2023-06-22T13:42:31;12.65;;;7.40;;
81477;SDS011;70892;52.526;5.494;2023-06-22T13:44:56;9.95;;;7.13;;
81477;SDS011;70892;52.526;5.494;2023-06-22T13:47:22;9.98;;;7.18;;
81477;SDS011;70892;52.526;5.494;2023-06-22T13:49:48;15.05;;;7.85;;
81477;SDS011;70892;52.526;5.494;2023-06-22T13:52:13;11.05;;;8.07;;
81477;SDS011;70892;52.526;5.494;2023-06-22T13:54:39;10.45;;;8.73;;
81477;SDS011;70892;52.526;5.494;2023-06-22T13:57:04;9.80;;;8.25;;
81477;SDS011;70892;52.526;5.494;2023-06-22T13:59:30;12.05;;;8.75;;
81477;SDS011;70892;52.526;5.494;2023-06-22T14:01:55;11.38;;;8.88;;
81477;SDS011;70892;52.526;5.494;2023-06-22T14:04:24;12.93;;;9.20;;
81477;SDS011;70892;52.526;5.494;2023-06-22T14:06:49;12.40;;;9.27;;
81477;SDS011;70892;52.526;5.494;2023-06-22T14:09:15;11.40;;;9.27;;
81477;SDS011;70892;52.526;5.494;2023-06-22T14:11:40;10.23;;;9.20;;
81477;SDS011;70892;52.526;5.494;2023-06-22T14:14:05;10.43;;;9.13;;
81477;SDS011;70892;52.526;5.494;2023-06-22T14:16:31;12.35;;;9.55;;
81477;SDS011;70892;52.526;5.494;2023-06-22T14:18:56;15.90;;;9.77;;
81477;SDS011;70892;52.526;5.494;2023-06-22T14:21:21;10.70;;;9.03;;
81477;SDS011;70892;52.526;5.494;2023-06-22T14:23:47;12.50;;;9.85;;
81477;SDS011;70892;52.526;5.494;2023-06-22T14:26:14;14.88;;;10.02;;
81477;SDS011;70892;52.526;5.494;2023-06-22T14:28:43;13.35;;;9.52;;